Time,TemperatureF,DewpointF,PressureIn,WindDirection,WindDirectionDegrees,WindSpeedMPH,WindSpeedGustMPH,Humidity,HourlyPrecipIn,Conditions,Clouds,dailyrainin,SoftwareType,DateUTC
2013-08-06 00:01:00,77.0,73.0,29.96,WSW,238,0.0,4.0,87,0.00,,,2.80,,2013-08-06 04:01:00,
2013-08-06 00:33:00,77.0,74.0,29.96,West,276,3.0,5.0,89,0.00,,,2.50,,2013-08-06 04:33:00,
2013-08-06 00:44:00,77.0,74.0,29.95,SW,219,2.0,0.0,89,0.00,,,2.50,,2013-08-06 04:44:00,
2013-08-06 00:53:00,77.0,74.0,29.95,West,277,1.0,2.0,89,0.00,,,2.50,,2013-08-06 04:53:00,
2013-08-06 01:02:00,77.0,74.0,29.94,SSW,207,2.0,2.0,89,0.00,,,2.50,,2013-08-06 05:02:00,
2013-08-06 01:11:00,77.0,74.0,29.94,SSW,207,2.0,2.0,89,0.00,,,2.50,,2013-08-06 05:11:00,
2013-08-06 02:02:00,78.0,75.0,29.92,SW,235,0.0,0.0,90,0.00,,,2.50,,2013-08-06 06:02:00,
2013-08-06 02:11:00,77.0,74.0,29.91,WSW,240,0.0,0.0,91,0.00,,,2.50,,2013-08-06 06:11:00,
2013-08-06 02:22:00,77.0,74.0,29.91,WSW,240,0.0,0.0,91,0.00,,,2.50,,2013-08-06 06:22:00,
2013-08-06 02:32:00,77.0,74.0,29.91,WSW,240,0.0,0.0,91,0.00,,,2.50,,2013-08-06 06:32:00,
2013-08-06 02:43:00,77.0,74.0,29.91,WSW,240,0.0,0.0,91,0.00,,,2.50,,2013-08-06 06:43:00,
2013-08-06 02:52:00,77.0,74.0,29.91,WSW,240,0.0,0.0,91,0.00,,,2.50,,2013-08-06 06:52:00,
2013-08-06 03:01:00,77.0,74.0,29.91,WSW,240,0.0,0.0,91,0.00,,,2.50,,2013-08-06 07:01:00,
2013-08-06 03:12:00,77.0,74.0,29.91,WSW,240,0.0,0.0,91,0.00,,,2.50,,2013-08-06 07:12:00,
2013-08-06 03:22:00,77.0,74.0,29.91,WSW,240,0.0,0.0,92,0.00,,,2.50,,2013-08-06 07:22:00,
2013-08-06 03:32:00,77.0,74.0,29.90,WSW,240,0.0,0.0,92,0.00,,,2.50,,2013-08-06 07:32:00,
2013-08-06 03:43:00,77.0,74.0,29.90,WSW,240,0.0,0.0,92,0.00,,,2.50,,2013-08-06 07:43:00,
2013-08-06 03:53:00,78.0,75.0,29.90,WSW,240,0.0,0.0,92,0.00,,,2.50,,2013-08-06 07:53:00,
2013-08-06 04:02:00,78.0,75.0,29.90,WSW,240,0.0,0.0,92,0.00,,,2.50,,2013-08-06 08:02:00,
2013-08-06 04:11:00,78.0,75.0,29.90,WSW,240,0.0,0.0,92,0.00,,,2.50,,2013-08-06 08:11:00,
2013-08-06 04:22:00,78.0,75.0,29.90,WSW,240,0.0,0.0,92,0.00,,,2.50,,2013-08-06 08:22:00,
2013-08-06 04:33:00,78.0,75.0,29.90,WSW,240,0.0,0.0,92,0.00,,,2.50,,2013-08-06 08:33:00,
2013-08-06 04:43:00,78.0,75.0,29.89,WSW,240,0.0,0.0,92,0.00,,,2.50,,2013-08-06 08:43:00,
2013-08-06 04:52:00,78.0,75.0,29.90,WSW,240,0.0,0.0,92,0.00,,,2.50,,2013-08-06 08:52:00,
2013-08-06 05:01:00,78.0,75.0,29.90,WSW,240,0.0,0.0,92,0.00,,,2.50,,2013-08-06 09:01:00,
2013-08-06 05:11:00,78.0,75.0,29.89,WSW,240,0.0,0.0,92,0.00,,,2.50,,2013-08-06 09:11:00,
2013-08-06 05:22:00,78.0,75.0,29.89,WSW,240,0.0,0.0,92,0.00,,,2.50,,2013-08-06 09:22:00,
2013-08-06 05:32:00,78.0,75.0,29.89,WSW,240,0.0,0.0,92,0.00,,,2.50,,2013-08-06 09:32:00,
2013-08-06 05:43:00,78.0,75.0,29.88,WSW,240,0.0,0.0,92,0.00,,,2.50,,2013-08-06 09:43:00,
2013-08-06 05:52:00,78.0,75.0,29.89,WSW,240,0.0,0.0,92,0.00,,,2.50,,2013-08-06 09:52:00,
2013-08-06 06:01:00,78.0,75.0,29.89,WSW,240,0.0,0.0,92,0.00,,,2.50,,2013-08-06 10:01:00,
2013-08-06 06:32:00,77.0,74.0,29.88,WSW,240,0.0,0.0,92,0.00,,,2.50,,2013-08-06 10:32:00,
2013-08-06 06:43:00,77.0,75.0,29.88,WSW,240,0.0,0.0,93,0.00,,,2.50,,2013-08-06 10:43:00,
2013-08-06 06:53:00,76.0,74.0,29.88,WSW,240,0.0,0.0,93,0.00,,,2.50,,2013-08-06 10:53:00,
2013-08-06 07:22:00,76.0,74.0,29.89,WSW,240,0.0,0.0,93,0.00,,,2.50,,2013-08-06 11:22:00,
2013-08-06 07:32:00,76.0,74.0,29.90,WSW,240,0.0,0.0,94,0.00,,,2.50,,2013-08-06 11:32:00,
2013-08-06 07:43:00,76.0,74.0,29.90,WSW,240,0.0,0.0,94,0.00,,,2.50,,2013-08-06 11:43:00,
2013-08-06 07:53:00,76.0,74.0,29.90,WSW,240,0.0,0.0,94,0.00,,,2.50,,2013-08-06 11:53:00,
2013-08-06 08:02:00,76.0,74.0,29.90,WSW,240,0.0,0.0,94,0.00,,,2.50,,2013-08-06 12:02:00,
2013-08-06 08:11:00,76.0,74.0,29.90,WSW,240,0.0,0.0,94,0.00,,,2.50,,2013-08-06 12:11:00,
2013-08-06 08:52:00,80.0,75.0,29.93,West,278,0.0,4.0,86,0.00,,,2.50,,2013-08-06 12:52:00,
2013-08-06 08:53:00,81.0,76.0,29.94,WNW,301,0.0,4.0,84,0.00,,,2.50,,2013-08-06 12:53:00,
2013-08-06 09:02:00,80.0,75.0,29.93,West,278,0.0,4.0,86,0.00,,,2.50,,2013-08-06 13:02:00,
2013-08-06 09:11:00,81.0,76.0,29.94,WNW,301,0.0,4.0,84,0.00,,,2.50,,2013-08-06 13:11:00,
2013-08-06 09:22:00,81.0,76.0,29.94,WNW,301,0.0,4.0,84,0.00,,,2.50,,2013-08-06 13:22:00,
2013-08-06 09:32:00,81.0,76.0,29.94,WNW,301,0.0,4.0,84,0.00,,,2.50,,2013-08-06 13:32:00,
2013-08-06 09:42:00,81.0,76.0,29.94,WNW,301,0.0,4.0,84,0.00,,,2.50,,2013-08-06 13:42:00,
2013-08-06 12:02:00,88.0,75.0,29.95,WNW,287,2.0,2.0,65,0.00,,,2.50,,2013-08-06 16:02:00,
2013-08-06 12:11:00,89.0,75.0,29.95,ENE,65,4.0,4.0,63,0.00,,,2.50,,2013-08-06 16:11:00,
2013-08-06 12:43:00,88.0,75.0,29.95,East,89,5.0,5.0,66,0.00,,,2.50,,2013-08-06 16:43:00,
2013-08-06 12:52:00,88.0,76.0,29.94,SSE,153,4.0,4.0,67,0.00,,,2.50,,2013-08-06 16:52:00,
2013-08-06 13:02:00,89.0,76.0,29.94,NE,51,3.0,3.0,65,0.00,,,2.50,,2013-08-06 17:02:00,
2013-08-06 13:32:00,89.0,75.0,29.93,SE,143,6.0,6.0,64,0.00,,,2.50,,2013-08-06 17:32:00,
2013-08-06 13:44:00,89.0,75.0,29.93,SE,143,6.0,6.0,64,0.00,,,2.50,,2013-08-06 17:44:00,
2013-08-06 13:52:00,89.0,75.0,29.93,SE,143,6.0,6.0,64,0.00,,,2.50,,2013-08-06 17:52:00,
2013-08-06 14:01:00,90.0,77.0,29.92,East,98,5.0,5.0,66,0.00,,,2.50,,2013-08-06 18:01:00,
2013-08-06 14:11:00,90.0,77.0,29.92,East,98,5.0,5.0,66,0.00,,,2.50,,2013-08-06 18:11:00,
2013-08-06 14:22:00,90.0,76.0,29.92,SE,138,3.0,3.0,63,0.00,,,2.50,,2013-08-06 18:22:00,
2013-08-06 14:32:00,90.0,76.0,29.92,SE,138,3.0,3.0,63,0.00,,,2.50,,2013-08-06 18:32:00,
2013-08-06 14:52:00,89.0,76.0,29.92,SSE,160,6.0,6.0,65,0.00,,,2.50,,2013-08-06 18:52:00,
2013-08-06 15:01:00,89.0,76.0,29.92,SSE,160,6.0,6.0,65,0.00,,,2.50,,2013-08-06 19:01:00,
2013-08-06 15:11:00,90.0,77.0,29.91,SSE,158,4.0,4.0,65,0.00,,,2.50,,2013-08-06 19:11:00,
2013-08-06 15:32:00,89.0,76.0,29.91,South,176,4.0,4.0,65,0.00,,,2.50,,2013-08-06 19:32:00,
2013-08-06 15:42:00,89.0,75.0,29.91,SE,141,4.0,4.0,64,0.00,,,2.50,,2013-08-06 19:42:00,
2013-08-06 15:52:00,90.0,76.0,29.91,SSW,207,5.0,5.0,63,0.00,,,2.50,,2013-08-06 19:52:00,
2013-08-06 16:01:00,89.0,75.0,29.90,SE,124,6.0,10.0,63,0.00,,,2.50,,2013-08-06 20:01:00,
2013-08-06 16:11:00,89.0,75.0,29.90,East,96,6.0,9.0,64,0.00,,,2.50,,2013-08-06 20:11:00,
2013-08-06 16:32:00,89.0,76.0,29.90,SSW,201,8.0,8.0,65,0.00,,,2.50,,2013-08-06 20:32:00,
2013-08-06 16:44:00,89.0,76.0,29.90,SE,125,3.0,4.0,66,0.00,,,2.50,,2013-08-06 20:44:00,
2013-08-06 16:52:00,89.0,76.0,29.90,SE,125,3.0,4.0,66,0.00,,,2.50,,2013-08-06 20:52:00,
2013-08-06 17:01:00,89.0,75.0,29.89,South,187,4.0,4.0,64,0.00,,,2.50,,2013-08-06 21:01:00,
2013-08-06 17:11:00,89.0,75.0,29.89,South,187,4.0,4.0,64,0.00,,,2.50,,2013-08-06 21:11:00,
2013-08-06 17:22:00,89.0,75.0,29.89,South,187,4.0,4.0,64,0.00,,,2.50,,2013-08-06 21:22:00,
2013-08-06 17:43:00,89.0,76.0,29.88,SE,131,4.0,4.0,65,0.00,,,2.50,,2013-08-06 21:43:00,
2013-08-06 18:01:00,88.0,76.0,29.89,ESE,104,5.0,6.0,68,0.00,,,2.50,,2013-08-06 22:01:00,
2013-08-06 18:11:00,88.0,76.0,29.89,ESE,104,5.0,6.0,68,0.00,,,2.50,,2013-08-06 22:11:00,
2013-08-06 18:43:00,87.0,76.0,29.89,SE,146,3.0,5.0,69,0.00,,,2.50,,2013-08-06 22:43:00,
2013-08-06 18:53:00,87.0,76.0,29.89,SE,146,3.0,5.0,69,0.00,,,2.50,,2013-08-06 22:53:00,
2013-08-06 19:01:00,87.0,76.0,29.89,SE,146,3.0,5.0,69,0.00,,,2.50,,2013-08-06 23:01:00,
2013-08-06 19:11:00,87.0,76.0,29.89,SE,146,3.0,5.0,69,0.00,,,2.50,,2013-08-06 23:11:00,
2013-08-06 19:43:00,82.0,71.0,29.91,NNW,329,1.0,0.0,70,0.00,,,2.50,,2013-08-06 23:43:00,
2013-08-06 19:52:00,82.0,71.0,29.91,NNW,329,1.0,0.0,70,0.00,,,2.50,,2013-08-06 23:52:00,
2013-08-06 20:01:00,82.0,71.0,29.91,NNW,329,1.0,0.0,70,0.00,,,2.50,,2013-08-07 00:01:00,
2013-08-06 20:11:00,81.0,71.0,29.92,West,267,3.0,5.0,71,0.00,,,2.50,,2013-08-07 00:11:00,
2013-08-06 20:21:00,81.0,71.0,29.92,West,267,3.0,5.0,71,0.00,,,2.50,,2013-08-07 00:21:00,
2013-08-06 20:32:00,81.0,72.0,29.93,West,271,1.0,4.0,75,0.00,,,2.50,,2013-08-07 00:32:00,
2013-08-06 20:43:00,81.0,73.0,29.93,West,278,2.0,3.0,77,0.00,,,2.50,,2013-08-07 00:43:00,
2013-08-06 21:01:00,80.0,73.0,29.92,West,270,0.0,0.0,79,0.00,,,2.50,,2013-08-07 01:01:00,
2013-08-06 21:11:00,80.0,73.0,29.92,West,270,0.0,0.0,79,0.00,,,2.50,,2013-08-07 01:11:00,
2013-08-06 21:43:00,80.0,73.0,29.92,North,8,0.0,0.0,79,0.00,,,2.50,,2013-08-07 01:43:00,
2013-08-06 21:52:00,80.0,73.0,29.93,WNW,287,1.0,3.0,79,0.00,,,2.50,,2013-08-07 01:52:00,
2013-08-06 22:02:00,80.0,73.0,29.93,WSW,245,0.0,0.0,80,0.00,,,2.50,,2013-08-07 02:02:00,
2013-08-06 22:11:00,80.0,73.0,29.93,WSW,245,0.0,0.0,79,0.00,,,2.50,,2013-08-07 02:11:00,
2013-08-06 23:01:00,80.0,73.0,29.93,West,270,0.0,1.0,79,0.00,,,2.50,,2013-08-07 03:01:00,
2013-08-06 23:12:00,80.0,73.0,29.93,West,270,0.0,1.0,79,0.00,,,2.50,,2013-08-07 03:12:00,
2013-08-06 23:23:00,80.0,73.0,29.93,West,270,0.0,0.0,80,0.00,,,2.50,,2013-08-07 03:23:00,
2013-08-06 23:43:00,80.0,74.0,29.93,West,270,0.0,0.0,82,0.00,,,2.50,,2013-08-07 03:43:00,
2013-08-06 23:52:00,80.0,74.0,29.93,West,270,0.0,0.0,82,0.00,,,2.50,,2013-08-07 03:52:00,